Terminal Aerodrome Forecast
Issued by NWS

Home | Current Version | Previous Version | Text Only | Print | Product List | Glossary On
Versions: 1 2 3 4 5 6 7 8 9 10 11 12 13 14 15 16 17 18 19 20 21 22 23 24 25 26 27 28 29 30 31 32 33 34 35 36 37 38 39 40 41 42 43 44
318
FTUS41 KBOX 260051 AAA
TAFFMH
TAF AMD
KFMH 260051Z 2601/2624 15010KT 1SM BR OVC003
     FM260200 19010KT 1SM -SHRA BR OVC003
     FM260500 26010KT 3SM BR VCSH BKN010
     FM260600 28011KT P6SM BKN045
     FM260800 29013G24KT P6SM SCT250
     FM261800 27017G26KT P6SM SCT045
     FM262300 28013G23KT P6SM FEW250=

USA.gov is the U.S. government's official web portal to all federal, state and local government web resources and services.